Kingstowne, Virginia
Current Conditions -  °F | °C
As of 8:58 PM on Friday 28 Nov 2014 (Local Time) from KDAA Reporting Station
Clear Clear  
Wind Chill: 25°   Ceiling: Unl
Heat Index: 25°   Visibility: 10mi
Dew Point: 22°   Wind: 2mph
Humidity: 86%   Direction: 140°SE
Pressure: 30.3"   Gusts: NA
Location:  38.755°N, 77.1496°W
Report Text: KDAA 290158Z AUTO 14002KT 10SM CLR M04/M06 A3030 RMK AO2 SLP265 T10371057
Loading
Personal Weather Stations






























Interactive Weather Map New forecast layout! Learn more

10-Day Weather Forecast

Advertisements
Track Severe Weather on mobile